Time;durP1;ratioP1;P1;durP2;ratioP2;P2;SDS_P1;SDS_P2;PMS_P1;PMS_P2;Temp;Humidity;BMP_temperature;BMP_pressure;BME280_temperature;BME280_humidity;BME280_pressure;Samples;Min_cycle;Max_cycle;Signal;HPM_P1;HPM_P2
2022/11/03 00:01:52;;;;;;;19.75;4.63;;;;;;;11.07;80.60;101379.59;5032138;28;20413;-75
2022/11/03 00:04:19;;;;;;;20.65;5.05;;;;;;;11.07;80.50;101379.59;5043103;28;20450;-75
2022/11/03 00:06:48;;;;;;;16.55;4.13;;;;;;;11.07;80.46;101374.31;5064906;28;20771;-76
2022/11/03 00:09:15;;;;;;;19.58;4.00;;;;;;;11.09;80.17;101372.44;5049304;28;20021;-75
2022/11/03 00:11:42;;;;;;;16.33;3.80;;;;;;;11.10;80.51;101368.84;5047978;28;20025;-76
2022/11/03 00:14:08;;;;;;;15.68;3.60;;;;;;;11.08;80.56;101373.38;5048797;28;20025;-75
2022/11/03 00:16:34;;;;;;;14.80;3.85;;;;;;;11.10;80.35;101366.22;5049055;28;20028;-75
2022/11/03 00:19:00;;;;;;;14.02;3.70;;;;;;;11.09;80.49;101369.78;5025537;28;20025;-75
2022/11/03 00:21:29;;;;;;;18.40;4.05;;;;;;;11.08;80.50;101362.84;5028202;28;20029;-75
2022/11/03 00:23:54;;;;;;;18.80;4.00;;;;;;;11.07;80.78;101358.53;5030837;28;20505;-75
2022/11/03 00:26:23;;;;;;;19.50;4.07;;;;;;;11.11;80.30;101360.00;5045210;28;20029;-75
2022/11/03 00:28:53;;;;;;;18.65;3.83;;;;;;;11.14;80.34;101349.25;5050037;28;20601;-75
2022/11/03 00:31:27;;;;;;;15.52;3.90;;;;;;;11.16;80.10;101346.50;5048704;28;20048;-75
2022/11/03 00:33:54;;;;;;;15.60;3.80;;;;;;;11.15;79.98;101350.94;5041170;28;20386;-76
2022/11/03 00:36:22;;;;;;;19.65;4.35;;;;;;;11.16;80.17;101342.09;5028245;28;20103;-75
2022/11/03 00:38:48;;;;;;;17.63;3.88;;;;;;;11.17;79.87;101333.22;5028129;28;20021;-75
2022/11/03 00:41:14;;;;;;;24.60;3.97;;;;;;;11.18;79.92;101326.19;5029432;28;20048;-75
2022/11/03 00:43:40;;;;;;;14.90;3.90;;;;;;;11.18;80.17;101313.00;5029481;28;20378;-76
2022/11/03 00:46:06;;;;;;;16.92;3.80;;;;;;;11.19;79.98;101314.69;5026965;28;20185;-75
2022/11/03 00:48:33;;;;;;;14.60;3.78;;;;;;;11.19;80.16;101320.81;5029089;28;20116;-76
2022/11/03 00:51:05;;;;;;;14.93;3.13;;;;;;;11.19;79.89;101326.06;5027942;28;20087;-76
2022/11/03 00:53:33;;;;;;;15.27;3.50;;;;;;;11.21;79.71;101313.66;5025521;28;20043;-75
2022/11/03 00:55:58;;;;;;;16.48;3.67;;;;;;;11.23;80.09;101309.13;5039650;28;20029;-75
2022/11/03 00:58:24;;;;;;;17.15;3.90;;;;;;;11.24;80.04;101308.19;5029355;28;20025;-75
2022/11/03 01:00:49;;;;;;;17.05;3.90;;;;;;;11.25;79.75;101299.34;5043600;28;20040;-76
2022/11/03 01:03:15;;;;;;;13.18;3.40;;;;;;;11.27;79.68;101297.44;5033222;28;20025;-76
2022/11/03 01:08:35;;;;;;;18.08;3.97;;;;;;;11.30;79.71;101286.69;5048425;28;20040;-75
2022/11/03 01:14:00;;;;;;;14.65;3.88;;;;;;;11.36;79.38;101287.19;5028174;28;20090;-75
2022/11/03 01:16:29;;;;;;;17.25;4.13;;;;;;;11.38;79.52;101285.28;5028785;28;20029;-75
2022/11/03 01:18:59;;;;;;;16.45;4.20;;;;;;;11.37;79.79;101281.81;5029110;28;20387;-76
2022/11/03 01:21:24;;;;;;;14.38;3.60;;;;;;;11.40;79.62;101288.66;5027975;28;20071;-75
2022/11/03 01:23:50;;;;;;;15.00;3.92;;;;;;;11.41;79.79;101287.72;5038576;28;20543;-75
2022/11/03 01:26:16;;;;;;;14.85;3.60;;;;;;;11.41;79.54;101279.81;5036156;28;20037;-75
2022/11/03 01:28:43;;;;;;;19.98;4.00;;;;;;;11.43;79.54;101270.84;5028851;28;20018;-75
2022/11/03 01:31:17;;;;;;;12.30;3.38;;;;;;;11.45;79.61;101265.47;5035992;28;20118;-76
2022/11/03 01:33:44;;;;;;;16.45;3.72;;;;;;;11.45;79.43;101262.81;5039333;28;20437;-76
2022/11/03 01:36:11;;;;;;;14.73;3.63;;;;;;;11.46;79.64;101260.09;5034101;28;20382;-76
2022/11/03 01:38:37;;;;;;;12.77;3.22;;;;;;;11.46;79.63;101264.50;5035986;28;20013;-76
2022/11/03 01:41:04;;;;;;;13.25;3.28;;;;;;;11.49;79.56;101251.13;5035823;28;20370;-76
2022/11/03 01:43:31;;;;;;;14.68;3.50;;;;;;;11.51;79.57;101242.16;5033796;28;20036;-76
2022/11/03 01:46:24;;;;;;;16.73;3.97;;;;;;;11.52;79.41;101243.84;5035221;28;20017;-76
2022/11/03 01:49:08;;;;;;;15.27;3.05;;;;;;;11.52;79.43;101235.94;5033456;28;20037;-76
2022/11/03 01:51:35;;;;;;;15.32;3.50;;;;;;;11.53;79.33;101234.97;5035052;28;20025;-76
2022/11/03 01:54:07;;;;;;;13.98;3.47;;;;;;;11.54;79.56;101235.81;5068023;28;20515;-76
2022/11/03 01:56:36;;;;;;;15.73;3.85;;;;;;;11.54;79.68;101225.28;5034010;28;20032;-76
2022/11/03 01:59:02;;;;;;;17.13;3.92;;;;;;;11.55;79.83;101224.31;5034753;28;20618;-76
2022/11/03 02:01:29;;;;;;;13.00;3.65;;;;;;;11.53;79.82;101239.41;5029390;28;20025;-76
2022/11/03 02:04:02;;;;;;;15.20;3.95;;;;;;;11.52;79.93;101228.03;5034375;28;20075;-75
2022/11/03 02:06:28;;;;;;;15.38;3.60;;;;;;;11.53;80.22;101226.22;5067071;28;20027;-75
2022/11/03 02:09:06;;;;;;;14.43;3.95;;;;;;;11.53;80.21;101224.44;5032822;28;20150;-75
2022/11/03 02:14:17;;;;;;;14.95;3.60;;;;;;;11.55;79.93;101216.41;5034705;28;20040;-74
2022/11/03 02:16:50;;;;;;;11.77;3.22;;;;;;;11.57;80.02;101207.44;5035247;28;20025;-75
2022/11/03 02:19:32;;;;;;;16.27;4.32;;;;;;;11.57;79.97;101202.16;5032219;28;20465;-76
2022/11/03 02:22:19;;;;;;;13.63;3.50;;;;;;;11.58;79.92;101197.75;5044148;28;20032;-76
2022/11/03 02:24:52;;;;;;;18.35;3.88;;;;;;;11.59;79.82;101196.78;5053183;28;20413;-76
2022/11/03 02:27:18;;;;;;;;;;;;;;;11.64;79.79;101192.06;5054011;28;20020;-75
2022/11/03 02:29:44;;;;;;;14.80;3.47;;;;;;;11.57;79.62;101190.78;5054249;28;20372;-76
2022/11/03 02:32:15;;;;;;;11.10;3.42;;;;;;;11.56;80.16;101181.19;5052902;28;20059;-76
2022/11/03 02:35:11;;;;;;;16.77;4.05;;;;;;;11.55;80.11;101182.16;5037168;28;20794;-75
2022/11/03 02:37:42;;;;;;;15.73;3.38;;;;;;;11.51;79.96;101165.72;5046351;28;20035;-75
2022/11/03 02:40:14;;;;;;;21.85;4.05;;;;;;;11.51;80.23;101175.44;5054140;28;20078;-76
2022/11/03 02:42:44;;;;;;;11.75;3.40;;;;;;;11.47;80.65;101173.97;5051579;28;20029;-75
2022/11/03 02:45:13;;;;;;;13.40;3.22;;;;;;;11.45;80.70;101168.81;5051897;28;20055;-75
2022/11/03 02:47:40;;;;;;;15.75;3.35;;;;;;;11.44;80.60;101158.38;5051356;28;20028;-75
2022/11/03 02:50:09;;;;;;;14.93;3.40;;;;;;;11.43;80.74;101149.63;5044466;28;20116;-75
2022/11/03 02:52:39;;;;;;;13.65;3.53;;;;;;;11.42;81.26;101157.66;5043079;28;20036;-76
2022/11/03 02:55:15;;;;;;;12.77;3.42;;;;;;;11.41;81.29;101155.97;5049298;28;20441;-75
2022/11/03 02:57:52;;;;;;;17.83;3.33;;;;;;;11.43;81.39;101148.81;5043670;28;20030;-75
2022/11/03 03:00:18;;;;;;;11.93;3.53;;;;;;;11.40;81.80;101138.47;5010203;28;20465;-75
2022/11/03 03:02:49;;;;;;;12.45;3.55;;;;;;;11.41;81.46;101129.63;5011516;28;20032;-76
2022/11/03 03:05:16;;;;;;;18.55;4.05;;;;;;;11.40;81.77;101127.94;5010774;28;20487;-75
2022/11/03 03:07:49;;;;;;;15.40;3.53;;;;;;;11.42;81.68;101126.88;5027915;28;20061;-75
2022/11/03 03:10:18;;;;;;;16.98;3.80;;;;;;;11.43;81.42;101117.19;5029131;28;20060;-76
2022/11/03 03:12:51;;;;;;;12.35;3.15;;;;;;;11.41;81.74;101119.94;5031129;28;20103;-76
2022/11/03 03:15:19;;;;;;;13.02;3.75;;;;;;;11.41;82.19;101119.09;5029792;28;20056;-76
2022/11/03 03:17:58;;;;;;;16.42;3.33;;;;;;;11.42;81.91;101115.50;5063207;28;20063;-75
2022/11/03 03:20:41;;;;;;;14.88;3.42;;;;;;;11.42;81.61;101120.78;5032400;28;20032;-75
2022/11/03 03:23:20;;;;;;;16.73;3.70;;;;;;;11.42;81.73;101104.97;5029937;28;20029;-75
2022/11/03 03:26:02;;;;;;;14.48;3.63;;;;;;;11.42;81.94;101115.50;5063425;28;20489;-75
2022/11/03 03:28:44;;;;;;;13.13;3.87;;;;;;;11.44;82.00;101108.31;5030715;28;20017;-75
2022/11/03 03:31:15;;;;;;;11.20;3.25;;;;;;;11.40;82.33;101102.44;5035932;28;20582;-75
2022/11/03 03:33:41;;;;;;;12.63;3.40;;;;;;;11.39;82.26;101105.19;5026559;28;20394;-76
2022/11/03 03:36:12;;;;;;;11.70;3.30;;;;;;;11.38;82.62;101106.97;5011387;28;20386;-75
2022/11/03 03:38:42;;;;;;;13.52;3.65;;;;;;;11.38;82.43;101103.50;5024999;28;20448;-75
2022/11/03 03:41:12;;;;;;;14.00;3.50;;;;;;;11.37;82.67;101101.84;5031125;28;20087;-75
2022/11/03 03:43:39;;;;;;;13.07;3.10;;;;;;;11.37;82.67;101092.13;5030598;28;20462;-75
2022/11/03 03:46:10;;;;;;;11.00;3.33;;;;;;;11.39;82.63;101081.47;5030339;28;20434;-75
2022/11/03 03:48:36;;;;;;;13.45;3.30;;;;;;;11.38;82.89;101078.00;5030670;28;20462;-75
2022/11/03 03:51:02;;;;;;;13.82;3.58;;;;;;;11.38;83.26;101078.00;5044712;28;20041;-75
2022/11/03 03:53:29;;;;;;;11.23;3.10;;;;;;;11.39;83.19;101074.41;5047798;28;20787;-75
2022/11/03 03:55:54;;;;;;;13.68;3.42;;;;;;;11.40;82.99;101070.00;5029383;28;20029;-76
2022/11/03 03:58:20;;;;;;;9.70;3.03;;;;;;;11.39;83.15;101058.59;5033103;28;20075;-75
2022/11/03 04:00:45;;;;;;;13.90;3.50;;;;;;;11.41;83.45;101061.13;5028982;28;20032;-76
2022/11/03 04:03:23;;;;;;;13.80;3.15;;;;;;;11.40;83.73;101067.34;5028562;28;20073;-76
2022/11/03 04:05:49;;;;;;;12.55;3.50;;;;;;;11.40;83.94;101062.09;5030011;28;20095;-75
2022/11/03 04:08:16;;;;;;;12.68;3.83;;;;;;;11.43;83.99;101065.31;5028142;28;20713;-76
2022/11/03 04:22:15;;;;;;;14.02;3.40;;;;;;;11.43;83.74;101070.59;5029216;28;20104;-76
2022/11/03 04:24:26;;;;;;;11.15;3.42;;;;;;;11.46;84.69;101046.66;5048546;28;20052;-76
2022/11/03 04:26:51;;;;;;;17.27;4.05;;;;;;;11.48;84.33;101047.38;5048480;28;20017;-76
2022/11/03 04:29:17;;;;;;;13.20;3.67;;;;;;;11.49;84.82;101037.69;5048991;28;20021;-75
2022/11/03 04:31:43;;;;;;;12.55;3.53;;;;;;;11.53;84.47;101031.22;5026180;28;20071;-76
2022/11/03 04:34:11;;;;;;;13.55;3.33;;;;;;;11.52;85.01;101037.44;5028698;28;20022;-76
2022/11/03 04:36:37;;;;;;;14.65;3.67;;;;;;;11.51;84.83;101030.50;5019865;28;20550;-75
2022/11/03 04:39:15;;;;;;;12.05;3.47;;;;;;;11.55;84.81;101037.22;5009850;28;20050;-76
2022/11/03 04:41:41;;;;;;;12.18;3.17;;;;;;;11.53;84.94;101034.69;5010485;28;20033;-76
2022/11/03 04:44:13;;;;;;;13.38;3.92;;;;;;;11.54;85.01;101025.84;5008936;28;20121;-75
2022/11/03 04:46:38;;;;;;;15.38;3.60;;;;;;;11.56;85.22;101025.72;5009828;28;20037;-75
2022/11/03 04:49:09;;;;;;;15.65;3.75;;;;;;;11.55;85.60;101021.41;5024968;28;20025;-75
2022/11/03 04:51:35;;;;;;;12.35;3.38;;;;;;;11.58;85.82;101014.09;5035641;28;20033;-75
2022/11/03 04:54:17;;;;;;;12.43;3.72;;;;;;;11.58;85.73;101015.91;5048229;28;20063;-75
2022/11/03 04:56:42;;;;;;;15.65;4.05;;;;;;;11.59;85.58;101012.31;5034934;28;20100;-74
2022/11/03 04:59:11;;;;;;;15.35;3.63;;;;;;;11.60;85.93;101008.72;5029215;28;20456;-75
2022/11/03 05:01:37;;;;;;;19.05;3.97;;;;;;;11.58;86.16;101000.94;5044982;28;20037;-75
2022/11/03 05:04:10;;;;;;;12.82;3.55;;;;;;;11.60;86.28;101006.09;5022850;28;20014;-75
2022/11/03 05:06:35;;;;;;;17.27;3.58;;;;;;;11.60;86.26;100995.53;5028650;28;20458;-75
2022/11/03 05:09:11;;;;;;;15.77;3.33;;;;;;;11.61;86.11;100999.88;5028782;28;20096;-75
2022/11/03 05:11:39;;;;;;;15.85;3.63;;;;;;;11.63;86.37;100995.34;5029314;28;20136;-75
2022/11/03 05:14:26;;;;;;;13.15;3.70;;;;;;;11.66;86.34;100991.63;5028035;28;20018;-75
2022/11/03 05:16:52;;;;;;;13.70;3.25;;;;;;;11.64;86.73;100989.09;5062360;28;20026;-75
2022/11/03 05:19:34;;;;;;;11.80;3.30;;;;;;;11.66;86.59;100986.34;5045691;28;20044;-75
2022/11/03 05:22:02;;;;;;;14.57;3.67;;;;;;;11.66;87.04;100981.09;5034052;28;20496;-75
2022/11/03 05:24:29;;;;;;;11.18;3.28;;;;;;;11.68;87.32;100980.00;5048327;28;20056;-75
2022/11/03 05:26:57;;;;;;;12.52;3.33;;;;;;;11.68;87.05;100980.00;5048994;28;20028;-75
2022/11/03 05:29:31;;;;;;;15.15;3.40;;;;;;;11.71;86.95;100963.97;5046408;28;20025;-75
2022/11/03 05:31:56;;;;;;;11.48;3.15;;;;;;;11.72;87.31;100949.81;5008810;28;20057;-75
2022/11/03 05:34:21;;;;;;;12.00;3.20;;;;;;;11.74;87.35;100963.72;5008233;28;20562;-75
2022/11/03 05:36:47;;;;;;;12.05;3.05;;;;;;;11.75;87.62;100954.00;5020263;28;20100;-75
2022/11/03 05:39:32;;;;;;;13.70;3.92;;;;;;;11.75;87.46;100952.22;5023311;28;20029;-75
2022/11/03 05:41:59;;;;;;;15.10;3.33;;;;;;;11.76;88.01;100946.00;5028418;28;20245;-75
2022/11/03 05:44:36;;;;;;;18.13;3.72;;;;;;;11.77;88.17;100947.66;5029319;28;20026;-74
2022/11/03 05:47:08;;;;;;;13.38;3.30;;;;;;;11.77;87.90;100931.00;5023416;28;20035;-75
2022/11/03 05:49:33;;;;;;;14.65;3.65;;;;;;;11.75;87.97;100933.78;5035811;28;20493;-75
2022/11/03 05:51:59;;;;;;;11.15;3.50;;;;;;;11.75;88.27;100939.03;5068450;28;20031;-75
2022/11/03 05:54:28;;;;;;;12.98;3.40;;;;;;;11.77;88.71;100933.66;5040352;28;20033;-75
2022/11/03 05:56:58;;;;;;;12.73;3.47;;;;;;;11.79;88.08;100927.31;5024926;28;20036;-75
2022/11/03 05:59:28;;;;;;;11.80;3.15;;;;;;;11.80;88.38;100925.53;5029084;28;20025;-76
2022/11/03 06:01:58;;;;;;;12.25;3.60;;;;;;;11.78;88.23;100924.81;5029289;28;20099;-75
2022/11/03 06:04:26;;;;;;;14.90;3.47;;;;;;;11.79;88.11;100906.25;5027508;28;20068;-75
2022/11/03 06:07:28;;;;;;;13.45;3.72;;;;;;;11.79;88.17;100914.16;5028650;28;20104;-76
2022/11/03 06:09:53;;;;;;;15.20;3.25;;;;;;;11.78;88.15;100906.34;5025866;28;20049;-76
2022/11/03 06:12:21;;;;;;;17.65;4.00;;;;;;;11.78;88.46;100907.19;5034395;28;20025;-76
2022/11/03 06:14:47;;;;;;;13.80;3.47;;;;;;;11.77;88.51;100907.28;5048358;28;20049;-76
2022/11/03 06:17:24;;;;;;;12.95;3.95;;;;;;;11.77;88.46;100910.75;5048962;28;20159;-76
2022/11/03 06:19:56;;;;;;;13.77;3.63;;;;;;;11.76;88.71;100900.34;5052410;28;20033;-76
2022/11/03 06:22:37;;;;;;;12.70;3.58;;;;;;;11.77;88.45;100900.22;5051571;28;20083;-76
2022/11/03 06:25:22;;;;;;;15.23;3.85;;;;;;;11.79;88.84;100893.06;5050735;28;20417;-75
2022/11/03 06:27:48;;;;;;;14.80;3.72;;;;;;;11.77;88.87;100887.03;5036723;28;20421;-76
2022/11/03 06:30:27;;;;;;;14.70;3.78;;;;;;;11.78;88.69;100888.75;5029654;28;20120;-76
2022/11/03 06:32:56;;;;;;;15.52;3.58;;;;;;;11.80;89.01;100892.09;5031771;28;20053;-76
2022/11/03 06:35:22;;;;;;;11.43;3.50;;;;;;;11.82;88.42;100892.81;5030088;28;20504;-76
2022/11/03 06:37:48;;;;;;;12.48;3.20;;;;;;;11.84;88.77;100882.16;5029992;28;20029;-76
2022/11/03 06:40:13;;;;;;;12.77;3.67;;;;;;;11.83;88.73;100881.31;5042290;28;20096;-76
2022/11/03 06:42:39;;;;;;;14.77;3.85;;;;;;;11.85;88.08;100879.38;5051738;28;20039;-76
2022/11/03 06:45:19;;;;;;;13.07;3.47;;;;;;;11.88;88.47;100886.22;5027498;28;20083;-75
2022/11/03 06:47:45;;;;;;;14.27;3.70;;;;;;;11.86;88.17;100873.16;5034630;28;20033;-76
2022/11/03 06:50:31;;;;;;;11.25;3.03;;;;;;;11.87;88.22;100869.56;5029551;28;20112;-76
2022/11/03 06:52:58;;;;;;;12.32;3.70;;;;;;;11.84;88.18;100876.88;5026805;28;20079;-76
2022/11/03 06:55:27;;;;;;;17.27;4.18;;;;;;;11.84;88.29;100869.81;5030338;28;20028;-76
2022/11/03 06:57:56;;;;;;;13.43;3.30;;;;;;;11.86;87.96;100861.78;5028289;28;20028;-76
2022/11/03 07:00:23;;;;;;;16.00;3.45;;;;;;;11.88;87.87;100865.13;5030954;28;20131;-76
2022/11/03 07:03:16;;;;;;;16.75;3.42;;;;;;;11.88;88.07;100871.22;5034909;28;20094;-76
2022/11/03 07:05:43;;;;;;;;;;;;;;;11.95;87.34;100873.38;5035175;28;20025;-76
2022/11/03 07:08:27;;;;;;;11.32;3.25;;;;;;;11.87;87.87;100861.66;5031681;28;19971;-74
2022/11/03 07:11:05;;;;;;;13.15;3.75;;;;;;;11.87;88.19;100861.66;5029631;28;20025;-74
2022/11/03 07:13:33;;;;;;;12.73;3.72;;;;;;;11.87;87.82;100858.19;5028918;28;20442;-74
2022/11/03 07:15:58;;;;;;;12.20;3.85;;;;;;;11.87;87.81;100858.19;5031211;28;20374;-75
2022/11/03 07:18:34;;;;;;;12.90;3.30;;;;;;;11.89;87.52;100857.09;5028354;28;20014;-74
2022/11/03 07:21:15;;;;;;;13.77;3.60;;;;;;;11.90;87.65;100853.50;5030206;28;20054;-75
2022/11/03 07:23:40;;;;;;;12.70;3.58;;;;;;;11.93;87.12;100853.25;5043077;28;20028;-75
2022/11/03 07:26:09;;;;;;;15.38;4.07;;;;;;;11.96;87.05;100846.06;5034970;28;20034;-75
2022/11/03 07:28:37;;;;;;;14.27;3.55;;;;;;;11.94;87.07;100848.81;5029316;28;20021;-75
2022/11/03 07:31:14;;;;;;;14.45;3.78;;;;;;;11.97;86.50;100838.03;5030760;28;20105;-79
2022/11/03 07:33:40;;;;;;;12.38;3.17;;;;;;;11.98;86.60;100833.59;5043029;28;20057;-79
2022/11/03 07:36:07;;;;;;;14.13;3.22;;;;;;;11.99;86.58;100829.97;5025350;28;20080;-79
2022/11/03 07:38:33;;;;;;;14.82;3.40;;;;;;;12.01;86.31;100833.34;5011270;28;20057;-78
2022/11/03 07:40:59;;;;;;;15.73;3.47;;;;;;;12.03;86.14;100826.16;5014456;28;20025;-76
2022/11/03 07:43:29;;;;;;;18.67;4.20;;;;;;;12.04;86.23;100836.59;5016486;28;20723;-76
2022/11/03 07:45:57;;;;;;;31.20;4.32;;;;;;;12.06;nan;100842.59;5051723;28;20204;-76
2022/11/03 07:48:33;;;;;;;15.07;3.42;;;;;;;12.08;85.99;100839.81;5028612;28;20113;-76
2022/11/03 07:51:04;;;;;;;27.60;5.10;;;;;;;12.11;85.44;100839.56;5062942;28;20035;-75
2022/11/03 07:53:41;;;;;;;12.77;3.50;;;;;;;12.15;85.46;100841.00;5011635;28;20124;-75
2022/11/03 07:56:31;;;;;;;11.55;3.17;;;;;;;12.16;85.31;100853.22;5030239;28;20025;-77
2022/11/03 07:59:01;;;;;;;11.35;3.00;;;;;;;12.15;85.00;100852.38;5027177;28;20410;-76
2022/11/03 08:01:30;;;;;;;13.68;3.20;;;;;;;12.17;84.95;100844.34;5030775;28;20068;-76
2022/11/03 08:04:07;;;;;;;13.77;3.53;;;;;;;12.20;84.69;100839.66;5028618;28;20111;-76
2022/11/03 08:06:32;;;;;;;9.27;2.70;;;;;;;12.22;84.94;100828.97;5028465;28;20068;-77
2022/11/03 08:08:58;;;;;;;10.95;2.95;;;;;;;12.23;84.85;100822.75;5026355;28;20028;-76
2022/11/03 08:11:23;;;;;;;14.93;3.38;;;;;;;12.26;84.52;100816.38;5046993;28;20049;-75
2022/11/03 08:13:50;;;;;;;13.68;3.20;;;;;;;12.29;84.18;100816.13;5014026;28;20022;-75
2022/11/03 08:16:16;;;;;;;11.93;3.17;;;;;;;12.29;83.80;100806.41;5009051;28;20509;-77
2022/11/03 08:18:42;;;;;;;15.30;3.13;;;;;;;12.34;83.66;100804.22;5009249;28;20010;-75
2022/11/03 08:21:07;;;;;;;23.35;3.88;;;;;;;12.36;83.79;100796.19;5041710;28;20033;-74
2022/11/03 08:23:33;;;;;;;13.63;2.78;;;;;;;12.39;83.17;100780.94;5021077;28;20024;-75
2022/11/03 08:25:58;;;;;;;12.90;3.55;;;;;;;12.43;83.28;100777.13;5029689;28;20076;-74
2022/11/03 08:28:23;;;;;;;12.35;3.00;;;;;;;12.45;82.99;100780.47;5061946;28;20025;-75
2022/11/03 08:30:49;;;;;;;15.23;3.00;;;;;;;12.48;82.87;100780.22;5029389;28;20029;-75
2022/11/03 08:33:14;;;;;;;12.50;3.03;;;;;;;12.50;82.20;100762.44;5029391;28;20484;-75
2022/11/03 08:35:40;;;;;;;11.20;2.85;;;;;;;12.53;82.46;100750.78;5061823;28;20043;-75
2022/11/03 08:38:05;;;;;;;16.67;3.72;;;;;;;12.55;82.53;100748.84;5028597;28;20032;-75
2022/11/03 08:40:31;;;;;;;11.75;3.00;;;;;;;12.61;81.47;100736.94;5028048;28;20459;-75
2022/11/03 08:42:56;;;;;;;9.63;2.90;;;;;;;12.60;81.87;100725.53;5029346;28;20022;-75
2022/11/03 08:45:21;;;;;;;16.67;3.58;;;;;;;12.64;81.73;100721.69;5029065;28;20401;-76
2022/11/03 08:47:47;;;;;;;14.68;3.53;;;;;;;12.70;81.40;100715.03;5028195;28;20025;-75
2022/11/03 08:50:12;;;;;;;16.60;3.05;;;;;;;12.74;81.66;100711.16;5027714;28;20473;-75
2022/11/03 08:52:37;;;;;;;13.18;3.22;;;;;;;12.79;81.07;100704.53;5028400;28;20025;-75
2022/11/03 08:55:03;;;;;;;13.88;2.95;;;;;;;12.86;80.47;100710.97;5029956;28;20025;-75
2022/11/03 08:57:28;;;;;;;12.65;2.80;;;;;;;12.93;80.13;100706.00;5029994;28;20018;-75
2022/11/03 08:59:55;;;;;;;14.02;3.45;;;;;;;12.98;79.77;100698.53;5029618;28;20466;-75
2022/11/03 09:02:20;;;;;;;10.45;2.78;;;;;;;13.04;79.75;100682.13;5045186;28;20493;-75
2022/11/03 09:04:46;;;;;;;11.70;2.95;;;;;;;13.10;79.32;100681.59;5045275;28;20035;-75
2022/11/03 09:07:11;;;;;;;10.50;2.90;;;;;;;13.17;78.88;100685.41;5028799;28;20029;-76
2022/11/03 09:09:36;;;;;;;11.50;2.60;;;;;;;13.23;78.11;100675.28;5024513;28;20017;-76
2022/11/03 09:12:02;;;;;;;9.00;2.60;;;;;;;13.30;78.26;100660.56;5029583;28;20033;-75
2022/11/03 09:14:27;;;;;;;11.77;2.58;;;;;;;13.32;76.74;100655.97;5029339;28;20111;-76
2022/11/03 09:16:52;;;;;;;8.75;2.60;;;;;;;13.37;77.08;100648.47;5028035;28;20029;-75
2022/11/03 09:19:18;;;;;;;9.85;2.45;;;;;;;13.42;76.78;100630.41;5027991;28;20079;-75
2022/11/03 09:21:43;;;;;;;9.30;2.60;;;;;;;13.47;76.65;100626.38;5027971;28;20025;-75
2022/11/03 09:24:08;;;;;;;9.50;2.70;;;;;;;13.50;76.27;100609.41;5024199;28;20053;-75
2022/11/03 09:26:34;;;;;;;11.00;2.60;;;;;;;13.54;75.87;100605.50;5056295;28;20048;-75
2022/11/03 09:28:59;;;;;;;8.52;2.45;;;;;;;13.58;75.90;100600.78;5028532;28;20040;-75
2022/11/03 09:31:27;;;;;;;13.90;2.85;;;;;;;13.56;76.08;100598.28;5027705;28;20032;-75
2022/11/03 09:33:52;;;;;;;32.15;4.30;;;;;;;13.58;75.40;100585.75;5027639;28;20021;-75
2022/11/03 09:36:18;;;;;;;10.20;2.50;;;;;;;13.59;75.30;100584.78;5028431;28;20106;-75
2022/11/03 09:38:43;;;;;;;8.52;2.58;;;;;;;13.62;74.67;100568.66;5028973;28;20021;-75
2022/11/03 09:41:16;;;;;;;17.15;3.63;;;;;;;13.65;74.54;100576.31;5028104;28;20032;-75
2022/11/03 09:43:43;;;;;;;10.35;2.53;;;;;;;13.66;74.52;100577.16;5022438;28;20401;-75
2022/11/03 09:46:13;;;;;;;11.70;2.92;;;;;;;13.63;74.63;100559.75;5043851;28;20029;-75
2022/11/03 09:48:39;;;;;;;9.68;2.50;;;;;;;13.65;74.47;100571.03;5028359;28;20108;-75
2022/11/03 09:51:05;;;;;;;29.63;4.15;;;;;;;13.63;74.71;100565.03;5029260;28;20116;-75
2022/11/03 09:53:30;;;;;;;11.95;2.60;;;;;;;13.63;74.54;100554.47;5033405;28;20029;-75
2022/11/03 09:55:59;;;;;;;7.82;2.42;;;;;;;13.62;74.50;100552.78;5032541;28;20017;-75
2022/11/03 09:58:25;;;;;;;8.38;2.83;;;;;;;13.63;74.58;100551.81;5032197;28;20026;-76
2022/11/03 10:00:50;;;;;;;8.02;2.20;;;;;;;13.63;74.28;100540.41;5043068;28;20071;-75
2022/11/03 10:03:16;;;;;;;6.93;2.25;;;;;;;13.64;74.30;100542.91;5032356;28;20037;-75
2022/11/03 10:05:44;;;;;;;10.90;2.75;;;;;;;13.62;74.40;100539.56;5033307;28;20049;-75
2022/11/03 10:08:28;;;;;;;11.50;2.42;;;;;;;13.68;74.56;100538.19;5032777;28;20026;-75
2022/11/03 10:10:54;;;;;;;8.02;2.60;;;;;;;13.62;74.35;100529.00;5031825;28;20029;-75
2022/11/03 10:13:30;;;;;;;25.58;4.70;;;;;;;13.60;74.49;100523.00;5032767;28;20029;-75
2022/11/03 10:16:01;;;;;;;10.27;2.70;;;;;;;13.61;74.59;100527.34;5032417;28;20406;-75
2022/11/03 10:18:27;;;;;;;18.42;3.20;;;;;;;13.57;74.64;100509.22;5030556;28;20044;-75
2022/11/03 10:20:53;;;;;;;10.35;2.75;;;;;;;13.57;74.93;100512.69;5032566;28;20104;-76
2022/11/03 10:23:18;;;;;;;8.85;2.47;;;;;;;13.58;74.51;100509.09;5031209;28;20025;-76
2022/11/03 10:25:45;;;;;;;11.60;3.08;;;;;;;13.56;74.51;100512.84;5032194;28;20406;-76
2022/11/03 10:28:10;;;;;;;8.77;2.63;;;;;;;13.60;74.46;100499.19;5031723;28;20033;-76
2022/11/03 10:30:47;;;;;;;8.52;2.97;;;;;;;13.62;74.67;100502.56;5031947;28;20021;-76
2022/11/03 10:33:30;;;;;;;9.13;2.63;;;;;;;13.66;74.54;100497.81;5031590;28;20017;-76
2022/11/03 10:36:06;;;;;;;11.18;2.58;;;;;;;13.71;74.61;100491.13;5026819;28;20037;-76
2022/11/03 10:38:35;;;;;;;10.43;2.38;;;;;;;13.77;73.75;100489.72;5063232;28;20018;-76
2022/11/03 10:41:30;;;;;;;10.40;2.78;;;;;;;13.86;74.10;100488.84;5030442;28;20056;-76
2022/11/03 10:44:11;;;;;;;9.80;2.50;;;;;;;13.95;72.60;100482.69;5031338;28;20763;-75
2022/11/03 10:46:38;;;;;;;8.40;2.92;;;;;;;14.05;72.58;100482.69;5032087;28;20026;-76
2022/11/03 10:49:13;;;;;;;8.77;2.45;;;;;;;14.08;71.99;100479.75;5029867;28;20269;-76
2022/11/03 10:51:40;;;;;;;8.48;2.40;;;;;;;14.14;72.33;100473.88;5028664;28;20474;-76
2022/11/03 10:54:11;;;;;;;6.70;2.33;;;;;;;14.22;71.95;100476.63;5031356;28;20478;-76
2022/11/03 10:56:37;;;;;;;9.00;2.33;;;;;;;14.28;71.25;100472.56;5031749;28;20091;-76
2022/11/03 10:59:02;;;;;;;7.25;2.55;;;;;;;14.32;71.29;100469.47;5031160;28;20021;-76
2022/11/03 11:01:27;;;;;;;6.15;2.15;;;;;;;14.38;70.70;100453.00;5047260;28;20032;-76
2022/11/03 11:03:54;;;;;;;10.10;2.50;;;;;;;14.47;70.65;100450.50;5047135;28;20547;-76
2022/11/03 11:06:27;;;;;;;8.40;2.35;;;;;;;14.52;69.66;100464.13;5031201;28;20540;-76
2022/11/03 11:08:56;;;;;;;8.88;2.95;;;;;;;14.55;69.84;100454.06;5026648;28;20037;-76
2022/11/03 11:11:22;;;;;;;7.65;2.30;;;;;;;14.57;69.02;100445.97;5030099;28;20026;-76
2022/11/03 11:14:20;;;;;;;6.10;2.47;;;;;;;14.59;69.76;100450.13;5031526;28;20531;-76
2022/11/03 11:16:46;;;;;;;7.20;2.55;;;;;;;14.52;69.14;100437.66;5030581;28;20884;-77
2022/11/03 11:19:11;;;;;;;10.23;2.47;;;;;;;14.51;69.04;100431.53;5030890;28;20097;-76
2022/11/03 11:21:37;;;;;;;9.13;2.60;;;;;;;14.57;68.79;100422.97;5029868;28;20112;-76
2022/11/03 11:24:02;;;;;;;11.60;2.53;;;;;;;14.61;69.43;100426.16;5060138;28;20049;-76
2022/11/03 11:26:32;;;;;;;7.78;2.40;;;;;;;14.63;68.49;100424.19;5028386;28;20059;-76
2022/11/03 11:29:07;;;;;;;11.43;2.45;;;;;;;14.66;68.90;100408.00;5031405;28;20061;-77
2022/11/03 11:31:34;;;;;;;8.15;2.30;;;;;;;14.70;68.09;100398.78;5030299;28;20386;-76
2022/11/03 11:34:08;;;;;;;9.48;2.50;;;;;;;14.76;68.69;100403.47;5023488;28;20026;-77
2022/11/03 11:36:42;;;;;;;8.73;2.30;;;;;;;14.85;67.64;100385.84;5017204;28;20030;-76
2022/11/03 11:39:29;;;;;;;7.00;2.42;;;;;;;14.95;68.95;100381.28;5030634;28;20267;-76
2022/11/03 11:42:07;;;;;;;6.05;2.10;;;;;;;14.97;67.35;100374.84;5025706;28;20060;-76
2022/11/03 11:44:42;;;;;;;6.72;2.30;;;;;;;15.00;66.94;100369.25;5062600;28;20021;-76
2022/11/03 11:47:24;;;;;;;8.73;2.70;;;;;;;15.02;66.85;100367.28;5061574;28;20482;-76
2022/11/03 11:50:04;;;;;;;8.55;2.22;;;;;;;15.02;67.57;100354.03;5030872;28;20036;-77
2022/11/03 11:52:31;;;;;;;11.55;2.30;;;;;;;15.00;66.43;100332.16;5028847;28;20080;-76